OIAG  Aghajari  Airport

Aghajari,, Iran

Add Bookmark
ICAO OIAG
Type Airport
Status Operational
Latitude
30° 44' 39" N
30.744400
Longitude
49° 40' 37" E
49.677200
Local (DST + 5) UTC (GMT + 4)
Jul 7, 2015 11:27 Jul 7, 2015 06:57
Sunrise-Sunset Local UTC
Begin Civil Twilight 05:45 01:15
Sunrise 06:13 01:43
Sunset 08:19 15:49
End Civil Twilight 08:46 16:16
VFR
VFR
MVFR
MVFR
IFR
IFR
LIFR
LIFR
Unknown
Unavailable

Current Weather

METAR Observed VFR
OIAG 070500Z 31004KT 9999 BKN040 33/00 Q0998 Tue, Jul 7, 2015 @ 05:00 UTC
(1 Hour, 57 Minutes ago)
Visual Flight Rules
Wind Visibility Clouds Conditions
310° at 4 knots (7 kph) 10 km or more
  • Broken at 4,000 ft AGL
  • No significant weather
Temperatures Readings Precipitation
Current Temp
33°C
91°F
Dewpoint
0°C
32°F
Humidity 12%
Altimeter 29.47" Hg
Sea Level Pressure 998 mb
Field Elevation
29 m
95 ft
None Recorded

Additional weather within a 92.6km radius of OIAG

Map ICAO Location
OIAM 54.4km W/SW (248°)
VFR
VFR
MVFR
MVFR
IFR
IFR
LIFR
LIFR
Unknown
Unavailable
-
-

CheckWX.com is intended as a tool to help pilots better visualize weather data. It is not intended as a substitute for an official weather briefing obtained from a Flight Service Station. CheckWX.com does not meet the FAA requirements for an official pre-flight weather briefing. Therefore, it's important that pilots still call and obtain an official FSS pre-flight weather briefing.

© 2007-2015 CheckWX.com
06:57:12 UTC